createdAt,value
2018-09-13T00:00:25.156Z,97417.55
2018-09-13T00:02:52.160Z,97407.92
2018-09-13T00:05:19.558Z,97408.77
2018-09-13T00:07:47.024Z,97413.09
2018-09-13T00:10:14.433Z,97415.36
2018-09-13T00:12:41.886Z,97420.58
2018-09-13T00:15:09.357Z,97427.92
2018-09-13T00:17:36.870Z,97426.73
2018-09-13T00:20:04.406Z,97425.34
2018-09-13T00:22:31.894Z,97427.92
2018-09-13T00:24:59.407Z,97417.47
2018-09-13T00:27:26.865Z,97423.17
2018-09-13T00:29:54.317Z,97424.77
2018-09-13T00:32:21.758Z,97429.93
2018-09-13T00:34:49.200Z,97422.86
2018-09-13T00:37:16.644Z,97421.78
2018-09-13T00:39:44.392Z,97423.28
2018-09-13T00:42:11.996Z,97418.44
2018-09-13T00:44:39.480Z,97419.77
2018-09-13T00:47:06.910Z,97415.34
2018-09-13T00:49:34.388Z,97412.32
2018-09-13T00:52:01.883Z,97409.17
2018-09-13T00:54:29.364Z,97401.14
2018-09-13T00:56:56.860Z,97394.20
2018-09-13T00:59:24.272Z,97399.64
2018-09-13T01:01:51.700Z,97402.92
2018-09-13T01:04:19.145Z,97393.56
2018-09-13T01:06:46.634Z,97401.30
2018-09-13T01:09:14.105Z,97395.28
2018-09-13T01:11:41.557Z,97385.18
2018-09-13T01:14:09.088Z,97393.56
2018-09-13T01:16:37.104Z,97390.62
2018-09-13T01:19:04.584Z,97387.13
2018-09-13T01:21:32.047Z,97392.64
2018-09-13T01:23:59.532Z,97392.48
2018-09-13T01:26:26.932Z,97393.24
2018-09-13T01:28:54.357Z,97388.66
2018-09-13T01:31:21.804Z,97381.81
2018-09-13T01:33:49.231Z,97386.14
2018-09-13T01:36:16.726Z,97379.30
2018-09-13T01:38:44.209Z,97371.94
2018-09-13T01:41:11.652Z,97384.39
2018-09-13T01:43:39.115Z,97379.70
2018-09-13T01:46:06.557Z,97376.84
2018-09-13T01:48:34.088Z,97378.75
2018-09-13T01:51:01.571Z,97378.43
2018-09-13T01:53:28.975Z,97374.35
2018-09-13T01:55:56.724Z,97376.10
2018-09-13T01:58:24.183Z,97360.84
2018-09-13T02:00:51.744Z,97355.90
2018-09-13T02:03:19.187Z,97354.41
2018-09-13T02:05:46.656Z,97357.65
2018-09-13T02:08:14.064Z,97344.78
2018-09-13T02:10:41.528Z,97343.78
2018-09-13T02:13:09.020Z,97341.94
2018-09-13T02:15:36.447Z,97348.30
2018-09-13T02:18:04.179Z,97341.37
2018-09-13T02:20:31.627Z,97338.70
2018-09-13T02:22:59.184Z,97338.08
2018-09-13T02:25:26.237Z,97335.81
2018-09-13T02:27:53.234Z,97336.13
2018-09-13T02:30:20.192Z,97339.64
2018-09-13T02:32:47.237Z,97337.23
2018-09-13T02:35:14.227Z,97332.30
2018-09-13T02:37:41.273Z,97332.88
2018-09-13T02:40:08.651Z,97324.73
2018-09-13T02:42:36.159Z,97323.63
2018-09-13T02:45:03.799Z,97333.46
2018-09-13T02:47:31.276Z,97328.89
2018-09-13T02:49:58.730Z,97321.11
2018-09-13T02:52:26.197Z,97321.78
2018-09-13T02:54:53.702Z,97318.80
2018-09-13T02:57:21.255Z,97328.64
2018-09-13T02:59:48.766Z,97325.14
2018-09-13T03:02:16.211Z,97327.38
2018-09-13T03:04:43.614Z,97326.77
2018-09-13T03:07:11.064Z,97323.63
2018-09-13T03:09:38.611Z,97323.69
2018-09-13T03:12:06.010Z,97319.12
2018-09-13T03:14:33.472Z,97322.20
2018-09-13T03:17:00.936Z,97312.27
2018-09-13T03:19:28.416Z,97313.66
2018-09-13T03:21:55.812Z,97318.25
2018-09-13T03:24:23.292Z,97317.81
2018-09-13T03:26:50.736Z,97310.13
2018-09-13T03:29:18.181Z,97310.00
2018-09-13T03:31:45.686Z,97318.34
2018-09-13T03:34:13.136Z,97311.44
2018-09-13T03:36:40.816Z,97314.34
2018-09-13T03:39:08.303Z,97313.47
2018-09-13T03:41:35.770Z,97311.21
2018-09-13T03:44:03.239Z,97306.58
2018-09-13T03:46:30.661Z,97314.91
2018-09-13T03:48:58.093Z,97307.23
2018-09-13T03:51:25.581Z,97308.69
2018-09-13T03:53:53.041Z,97300.06
2018-09-13T03:56:20.573Z,97300.36
2018-09-13T03:58:48.236Z,97300.91
2018-09-13T04:01:15.867Z,97305.11
2018-09-13T04:03:43.297Z,97297.37
2018-09-13T04:06:10.774Z,97294.77
2018-09-13T04:08:38.228Z,97291.80
2018-09-13T04:11:05.747Z,97297.16
2018-09-13T04:13:33.193Z,97290.67
2018-09-13T04:16:00.666Z,97294.43
2018-09-13T04:18:28.160Z,97293.36
2018-09-13T04:20:55.602Z,97293.87
2018-09-13T04:23:23.096Z,97301.55
2018-09-13T04:25:50.577Z,97304.09
2018-09-13T04:28:18.059Z,97300.00
2018-09-13T04:30:45.499Z,97300.06
2018-09-13T04:33:12.945Z,97292.12
2018-09-13T04:35:40.484Z,97290.32
2018-09-13T04:38:07.900Z,97291.00
2018-09-13T04:40:35.344Z,97298.34
2018-09-13T04:43:02.833Z,97293.81
2018-09-13T04:45:30.342Z,97301.07
2018-09-13T04:47:57.811Z,97301.63
2018-09-13T04:50:25.229Z,97301.72
2018-09-13T04:52:52.738Z,97302.87
2018-09-13T04:55:20.162Z,97308.15
2018-09-13T04:57:47.609Z,97298.99
2018-09-13T05:00:15.066Z,97290.25
2018-09-13T05:02:42.439Z,97290.96
2018-09-13T05:05:09.906Z,97298.94
2018-09-13T05:07:37.355Z,97300.53
2018-09-13T05:10:04.841Z,97298.46
2018-09-13T05:12:32.314Z,97307.78
2018-09-13T05:14:59.745Z,97305.61
2018-09-13T05:17:27.222Z,97309.97
2018-09-13T05:19:54.663Z,97309.05
2018-09-13T05:22:22.152Z,97309.33
2018-09-13T05:24:49.666Z,97315.25
2018-09-13T05:27:17.096Z,97319.16
2018-09-13T05:29:44.540Z,97319.97
2018-09-13T05:32:12.036Z,97320.44
2018-09-13T05:34:39.460Z,97323.39
2018-09-13T05:37:06.891Z,97325.78
2018-09-13T05:39:34.352Z,97323.92
2018-09-13T05:42:01.811Z,97326.93
2018-09-13T05:44:29.284Z,97319.53
2018-09-13T05:46:56.703Z,97310.75
2018-09-13T05:49:24.144Z,97317.56
2018-09-13T05:51:52.586Z,97319.61
2018-09-13T05:54:20.011Z,97316.89
2018-09-13T05:56:47.492Z,97311.30
2018-09-13T05:59:14.977Z,97318.04
2018-09-13T06:01:42.486Z,97309.11
2018-09-13T06:04:10.400Z,97314.34
2018-09-13T06:06:38.810Z,97309.18
2018-09-13T06:09:06.288Z,97309.87
2018-09-13T06:11:33.834Z,97323.10
2018-09-13T06:14:01.275Z,97318.70
2018-09-13T06:16:28.776Z,97323.86
2018-09-13T06:18:56.463Z,97328.48
2018-09-13T06:21:24.042Z,97332.95
2018-09-13T06:23:51.554Z,97336.81
2018-09-13T06:26:19.004Z,97334.25
2018-09-13T06:28:46.565Z,97335.95
2018-09-13T06:31:14.019Z,97340.21
2018-09-13T06:33:41.621Z,97339.02
2018-09-13T06:36:09.068Z,97341.33
2018-09-13T06:38:36.657Z,97339.16
2018-09-13T06:41:04.245Z,97335.29
2018-09-13T06:43:31.697Z,97345.64
2018-09-13T06:45:59.207Z,97345.04
2018-09-13T06:48:26.714Z,97343.50
2018-09-13T06:50:54.151Z,97347.77
2018-09-13T06:53:21.642Z,97348.75
2018-09-13T06:55:49.120Z,97346.91
2018-09-13T06:58:16.575Z,97351.13
2018-09-13T07:00:44.053Z,97354.15
2018-09-13T07:03:12.831Z,97353.47
2018-09-13T07:05:40.309Z,97356.72
2018-09-13T07:08:07.975Z,97349.80
2018-09-13T07:10:35.417Z,97352.56
2018-09-13T07:13:02.950Z,97345.76
2018-09-13T07:15:30.399Z,97350.81
2018-09-13T07:17:57.837Z,97346.20
2018-09-13T07:20:25.377Z,97347.96
2018-09-13T07:22:53.740Z,97349.56
2018-09-13T07:25:21.259Z,97347.84
2018-09-13T07:27:48.744Z,97339.36
2018-09-13T07:30:16.292Z,97338.23
2018-09-13T07:32:43.842Z,97342.04
2018-09-13T07:35:12.259Z,97337.89
2018-09-13T07:37:40.818Z,97333.52
2018-09-13T07:40:08.389Z,97329.27
2018-09-13T07:42:36.733Z,97324.00
2018-09-13T07:45:03.883Z,97326.91
2018-09-13T07:47:30.925Z,97331.69
2018-09-13T07:49:58.022Z,97332.72
2018-09-13T07:52:25.462Z,97336.48
2018-09-13T07:54:52.989Z,97333.67
2018-09-13T07:57:20.469Z,97332.77
2018-09-13T07:59:48.217Z,97331.27
2018-09-13T08:02:15.761Z,97337.30
2018-09-13T08:04:43.255Z,97331.83
2018-09-13T08:07:10.246Z,97335.97
2018-09-13T08:09:37.716Z,97330.13
2018-09-13T08:12:06.083Z,97335.67
2018-09-13T08:14:32.957Z,97326.39
2018-09-13T08:16:59.945Z,97327.45
2018-09-13T08:19:27.434Z,97324.45
2018-09-13T08:21:55.496Z,97323.14
2018-09-13T08:24:22.472Z,97325.67
2018-09-13T08:26:49.535Z,97319.38
2018-09-13T08:29:17.075Z,97325.27
2018-09-13T08:31:44.060Z,97330.69
2018-09-13T08:34:11.524Z,97324.97
2018-09-13T08:36:39.043Z,97326.58
2018-09-13T08:39:07.785Z,97328.08
2018-09-13T08:41:35.436Z,97320.67
2018-09-13T08:44:02.519Z,97325.96
2018-09-13T08:46:29.462Z,97335.63
2018-09-13T08:48:56.422Z,97323.78
2018-09-13T08:51:23.487Z,97322.91
2018-09-13T08:53:50.890Z,97326.88
2018-09-13T08:56:18.353Z,97324.33
2018-09-13T08:58:45.302Z,97326.23
2018-09-13T09:01:12.328Z,97314.83
2018-09-13T09:03:39.794Z,97315.05
2018-09-13T09:06:07.376Z,97311.25
2018-09-13T09:08:34.856Z,97317.86
2018-09-13T09:11:02.417Z,97324.59
2018-09-13T09:13:29.870Z,97311.53
2018-09-13T09:15:58.636Z,97311.84
2018-09-13T09:18:26.200Z,97314.48
2018-09-13T09:20:53.639Z,97314.62
2018-09-13T09:23:21.081Z,97314.12
2018-09-13T09:25:48.576Z,97318.20
2018-09-13T09:28:15.997Z,97315.30
2018-09-13T09:30:43.612Z,97307.89
2018-09-13T09:33:11.103Z,97306.60
2018-09-13T09:35:39.432Z,97301.59
2018-09-13T09:38:06.856Z,97300.63
2018-09-13T09:40:33.901Z,97293.08
2018-09-13T09:43:01.029Z,97295.23
2018-09-13T09:45:28.511Z,97284.48
2018-09-13T09:47:55.983Z,97285.25
2018-09-13T09:50:24.392Z,97281.91
2018-09-13T09:52:51.622Z,97282.70
2018-09-13T09:55:19.084Z,97284.66
2018-09-13T09:57:46.589Z,97279.72
2018-09-13T10:00:14.196Z,97280.81
2018-09-13T10:02:41.626Z,97284.97
2018-09-13T10:05:09.055Z,97279.98
2018-09-13T10:07:36.744Z,97283.92
2018-09-13T10:10:04.306Z,97273.56
2018-09-13T10:12:31.770Z,97273.92
2018-09-13T10:14:59.278Z,97264.16
2018-09-13T10:20:35.671Z,97268.66
2018-09-13T10:26:14.932Z,97260.96
2018-09-13T10:28:48.189Z,97269.08
2018-09-13T10:34:15.675Z,97249.77
2018-09-13T10:36:48.803Z,97244.33
2018-09-13T10:42:30.264Z,97227.60
2018-09-13T10:47:56.490Z,97220.16
2018-09-13T10:50:17.430Z,97220.71
2018-09-13T10:52:44.893Z,97212.03
2018-09-13T10:55:12.485Z,97210.63
2018-09-13T10:57:40.661Z,97205.03
2018-09-13T11:00:08.192Z,97201.92
2018-09-13T11:02:35.717Z,97208.75
2018-09-13T11:05:03.186Z,97202.11
2018-09-13T11:07:30.624Z,97197.14
2018-09-13T11:09:58.115Z,97192.66
2018-09-13T11:12:25.611Z,97196.50
2018-09-13T11:14:53.104Z,97190.48
2018-09-13T11:17:21.757Z,97191.39
2018-09-13T11:19:49.327Z,97187.38
2018-09-13T11:22:16.802Z,97194.41
2018-09-13T11:24:44.268Z,97189.84
2018-09-13T11:27:11.718Z,97195.07
2018-09-13T11:29:39.173Z,97191.58
2018-09-13T11:32:06.669Z,97190.48
2018-09-13T11:34:34.995Z,97189.88
2018-09-13T11:37:02.496Z,97192.55
2018-09-13T11:39:29.951Z,97191.70
2018-09-13T11:41:57.901Z,97188.97
2018-09-13T11:44:25.384Z,97183.41
2018-09-13T11:46:54.053Z,97184.77
2018-09-13T11:49:21.528Z,97180.15
2018-09-13T11:51:49.044Z,97173.04
2018-09-13T11:54:16.456Z,97174.55
2018-09-13T11:56:43.968Z,97173.29
2018-09-13T11:59:11.517Z,97171.73
2018-09-13T12:01:39.060Z,97173.54
2018-09-13T12:04:06.529Z,97164.22
2018-09-13T12:06:33.938Z,97163.10
2018-09-13T12:09:01.417Z,97149.55
2018-09-13T12:11:28.887Z,97146.41
2018-09-13T12:13:56.351Z,97147.14
2018-09-13T12:16:23.804Z,97146.59
2018-09-13T12:18:51.534Z,97140.36
2018-09-13T12:21:18.875Z,97143.66
2018-09-13T12:23:46.324Z,97137.86
2018-09-13T12:26:13.774Z,97137.55
2018-09-13T12:28:41.286Z,97140.62
2018-09-13T12:31:08.776Z,97134.84
2018-09-13T12:33:36.319Z,97134.17
2018-09-13T12:36:03.882Z,97133.14
2018-09-13T12:38:31.295Z,97126.13
2018-09-13T12:40:58.844Z,97126.05
2018-09-13T12:43:27.210Z,97132.73
2018-09-13T12:45:54.760Z,97134.28
2018-09-13T12:48:22.253Z,97141.70
2018-09-13T12:50:49.785Z,97133.36
2018-09-13T12:53:17.371Z,97142.84
2018-09-13T12:55:44.438Z,97147.84
2018-09-13T12:58:11.889Z,97151.45
2018-09-13T13:00:39.299Z,97160.88
2018-09-13T13:03:06.804Z,97167.50
2018-09-13T13:05:34.451Z,97171.66
2018-09-13T13:08:01.963Z,97167.85
2018-09-13T13:10:30.244Z,97172.66
2018-09-13T13:12:57.858Z,97169.64
2018-09-13T13:15:25.329Z,97170.80
2018-09-13T13:17:52.857Z,97160.20
2018-09-13T13:20:20.423Z,97147.45
2018-09-13T13:22:47.905Z,97152.17
2018-09-13T13:25:15.435Z,97147.01
2018-09-13T13:27:43.017Z,97147.62
2018-09-13T13:30:10.409Z,97151.35
2018-09-13T13:32:37.852Z,97153.41
2018-09-13T13:35:05.290Z,97155.39
2018-09-13T13:37:32.725Z,97147.41
2018-09-13T13:40:00.456Z,97145.02
2018-09-13T13:42:28.092Z,97137.02
2018-09-13T13:44:55.688Z,97138.66
2018-09-13T13:47:23.271Z,97135.96
2018-09-13T13:49:50.804Z,97128.85
2018-09-13T13:52:18.276Z,97126.50
2018-09-13T13:54:45.722Z,97125.05
2018-09-13T13:57:13.154Z,97125.06
2018-09-13T13:59:40.678Z,97116.83
2018-09-13T14:02:08.191Z,97112.45
2018-09-13T14:04:35.898Z,97122.35
2018-09-13T14:07:03.344Z,97116.41
2018-09-13T14:09:31.076Z,97111.64
2018-09-13T14:11:58.559Z,97108.12
2018-09-13T14:14:25.712Z,97111.83
2018-09-13T14:16:53.185Z,97108.27
2018-09-13T14:19:20.844Z,97106.91
2018-09-13T14:21:49.249Z,97112.57
2018-09-13T14:24:16.703Z,97115.67
2018-09-13T14:26:44.251Z,97105.72
2018-09-13T14:29:11.871Z,97108.27
2018-09-13T14:31:39.354Z,97103.06
2018-09-13T14:34:06.848Z,97094.48
2018-09-13T14:36:34.461Z,97093.34
2018-09-13T14:39:02.037Z,97088.46
2018-09-13T14:41:29.476Z,97096.64
2018-09-13T14:43:56.954Z,97088.68
2018-09-13T14:46:24.429Z,97083.56
2018-09-13T14:48:51.888Z,97094.60
2018-09-13T14:51:19.327Z,97095.95
2018-09-13T14:53:46.856Z,97094.05
2018-09-13T14:56:14.389Z,97107.40
2018-09-13T14:58:41.782Z,97095.56
2018-09-13T15:01:09.251Z,97099.48
2018-09-13T15:03:36.926Z,97096.20
2018-09-13T15:06:04.394Z,97098.31
2018-09-13T15:08:31.882Z,97089.37
2018-09-13T15:10:59.850Z,97091.16
2018-09-13T15:13:27.279Z,97101.23
2018-09-13T15:15:54.735Z,97091.45
2018-09-13T15:18:22.247Z,97095.23
2018-09-13T15:20:49.697Z,97099.12
2018-09-13T15:23:17.335Z,97095.72
2018-09-13T15:25:44.859Z,97091.38
2018-09-13T15:28:12.663Z,97095.68
2018-09-13T15:30:40.056Z,97108.19
2018-09-13T15:33:07.714Z,97100.30
2018-09-13T15:35:35.258Z,97095.05
2018-09-13T15:38:02.826Z,97105.07
2018-09-13T15:40:30.493Z,97102.48
2018-09-13T15:42:57.960Z,97098.34
2018-09-13T15:45:25.366Z,97095.73
2018-09-13T15:47:52.919Z,97099.90
2018-09-13T15:50:20.440Z,97092.83
2018-09-13T15:52:47.951Z,97097.82
2018-09-13T15:55:15.519Z,97094.50
2018-09-13T15:57:43.076Z,97094.39
2018-09-13T16:00:10.569Z,97098.13
2018-09-13T16:02:38.015Z,97088.91
2018-09-13T16:05:05.475Z,97088.00
2018-09-13T16:07:33.083Z,97084.20
2018-09-13T16:10:00.720Z,97082.11
2018-09-13T16:12:28.233Z,97085.88
2018-09-13T16:14:55.647Z,97089.70
2018-09-13T16:17:23.319Z,97091.22
2018-09-13T16:19:51.464Z,97094.59
2018-09-13T16:22:19.440Z,97093.83
2018-09-13T16:24:46.897Z,97098.75
2018-09-13T16:27:14.398Z,97102.05
2018-09-13T16:29:41.861Z,97098.34
2018-09-13T16:32:09.353Z,97097.63
2018-09-13T16:34:36.815Z,97092.45
2018-09-13T16:37:05.164Z,97095.13
2018-09-13T16:42:42.750Z,97096.59
2018-09-13T16:45:10.162Z,97101.70
2018-09-13T16:50:31.084Z,97094.56
2018-09-13T16:52:59.315Z,97095.43
2018-09-13T16:55:26.840Z,97096.00
2018-09-13T16:57:54.305Z,97098.36
2018-09-13T17:00:21.813Z,97094.30
2018-09-13T17:02:50.102Z,97096.68
2018-09-13T17:05:17.567Z,97094.81
2018-09-13T17:07:45.216Z,97097.18
2018-09-13T17:10:13.443Z,97103.27
2018-09-13T17:12:41.138Z,97107.40
2018-09-13T17:15:08.662Z,97109.38
2018-09-13T17:17:36.412Z,97108.48
2018-09-13T17:20:03.974Z,97108.09
2018-09-13T17:22:31.772Z,97102.61
2018-09-13T17:24:59.293Z,97106.69
2018-09-13T17:27:26.768Z,97109.00
2018-09-13T17:29:54.234Z,97118.14
2018-09-13T17:32:21.834Z,97113.63
2018-09-13T17:34:49.383Z,97117.09
2018-09-13T17:37:16.937Z,97118.02
2018-09-13T17:39:44.333Z,97127.74
2018-09-13T17:42:11.770Z,97120.15
2018-09-13T17:44:39.295Z,97128.97
2018-09-13T17:47:06.907Z,97131.53
2018-09-13T17:49:34.450Z,97126.22
2018-09-13T17:52:02.009Z,97126.50
2018-09-13T17:54:30.030Z,97132.39
2018-09-13T17:56:57.490Z,97128.47
2018-09-13T17:59:24.957Z,97134.53
2018-09-13T18:01:52.463Z,97138.12
2018-09-13T18:04:19.924Z,97145.31
2018-09-13T18:06:47.465Z,97145.61
2018-09-13T18:09:14.924Z,97142.67
2018-09-13T18:11:42.410Z,97138.22
2018-09-13T18:14:09.901Z,97145.13
2018-09-13T18:16:37.380Z,97153.44
2018-09-13T18:19:04.875Z,97155.56
2018-09-13T18:21:32.402Z,97159.59
2018-09-13T18:24:00.341Z,97169.46
2018-09-13T18:26:28.065Z,97169.06
2018-09-13T18:28:55.079Z,97171.44
2018-09-13T18:31:22.543Z,97174.88
2018-09-13T18:33:50.015Z,97169.72
2018-09-13T18:36:18.602Z,97174.08
2018-09-13T18:38:46.182Z,97176.23
2018-09-13T18:41:13.583Z,97185.53
2018-09-13T18:43:41.036Z,97191.34
2018-09-13T18:46:08.485Z,97191.65
2018-09-13T18:48:35.988Z,97193.41
2018-09-13T18:51:03.435Z,97195.09
2018-09-13T18:53:31.165Z,97198.34
2018-09-13T18:55:58.640Z,97194.98
2018-09-13T18:58:26.161Z,97208.02
2018-09-13T19:00:53.665Z,97212.22
2018-09-13T19:03:21.150Z,97218.77
2018-09-13T19:05:48.675Z,97219.56
2018-09-13T19:08:16.185Z,97222.45
2018-09-13T19:10:43.694Z,97224.98
2018-09-13T19:13:11.186Z,97230.04
2018-09-13T19:15:39.532Z,97234.72
2018-09-13T19:18:07.032Z,97240.99
2018-09-13T19:20:34.560Z,97243.32
2018-09-13T19:23:02.065Z,97241.83
2018-09-13T19:25:29.569Z,97251.55
2018-09-13T19:27:57.064Z,97243.84
2018-09-13T19:30:24.475Z,97248.98
2018-09-13T19:32:52.041Z,97251.70
2018-09-13T19:35:19.485Z,97254.73
2018-09-13T19:37:47.176Z,97253.09
2018-09-13T19:40:14.659Z,97253.59
2018-09-13T19:42:42.169Z,97254.20
2018-09-13T19:45:09.620Z,97262.13
2018-09-13T19:47:37.097Z,97260.30
2018-09-13T19:50:04.648Z,97262.86
2018-09-13T19:52:32.110Z,97260.73
2018-09-13T19:54:59.552Z,97259.70
2018-09-13T19:57:27.563Z,97257.03
2018-09-13T19:59:56.135Z,97261.55
2018-09-13T20:02:23.624Z,97267.01
2018-09-13T20:04:51.209Z,97264.50
2018-09-13T20:07:18.703Z,97270.16
2018-09-13T20:09:46.213Z,97269.24
2018-09-13T20:12:13.764Z,97274.84
2018-09-13T20:14:41.292Z,97276.12
2018-09-13T20:17:08.858Z,97284.27
2018-09-13T20:19:36.604Z,97273.81
2018-09-13T20:22:04.080Z,97283.70
2018-09-13T20:24:31.827Z,97283.39
2018-09-13T20:26:59.228Z,97282.73
2018-09-13T20:29:26.884Z,97273.53
2018-09-13T20:31:54.528Z,97276.57
2018-09-13T20:34:21.946Z,97272.66
2018-09-13T20:36:49.553Z,97273.74
2018-09-13T20:39:17.206Z,97270.40
2018-09-13T20:41:44.654Z,97278.88
2018-09-13T20:44:12.184Z,97273.12
2018-09-13T20:46:39.804Z,97277.61
2018-09-13T20:49:07.198Z,97271.53
2018-09-13T20:51:34.745Z,97271.59
2018-09-13T20:54:02.235Z,97269.22
2018-09-13T20:56:29.680Z,97274.05
2018-09-13T20:58:57.173Z,97269.38
2018-09-13T21:01:24.851Z,97273.45
2018-09-13T21:03:52.414Z,97277.31
2018-09-13T21:06:19.843Z,97278.14
2018-09-13T21:08:47.596Z,97278.81
2018-09-13T21:11:15.194Z,97274.89
2018-09-13T21:13:42.663Z,97283.08
2018-09-13T21:16:10.148Z,97280.81
2018-09-13T21:18:37.655Z,97278.84
2018-09-13T21:21:05.100Z,97283.94
2018-09-13T21:23:32.592Z,97284.89
2018-09-13T21:26:00.044Z,97277.30
2018-09-13T21:28:27.592Z,97281.97
2018-09-13T21:30:55.105Z,97278.38
2018-09-13T21:33:22.577Z,97280.80
2018-09-13T21:35:50.159Z,97282.38
2018-09-13T21:38:17.630Z,97293.48
2018-09-13T21:40:45.076Z,97297.69
2018-09-13T21:43:12.528Z,97294.89
2018-09-13T21:45:40.021Z,97301.41
2018-09-13T21:48:07.535Z,97308.13
2018-09-13T21:50:34.942Z,97311.53
2018-09-13T21:53:02.552Z,97308.28
2018-09-13T21:55:30.151Z,97307.61
2018-09-13T21:57:57.658Z,97317.73
2018-09-13T22:00:25.129Z,97313.31
2018-09-13T22:02:52.539Z,97311.55
2018-09-13T22:05:20.086Z,97315.40
2018-09-13T22:07:47.720Z,97316.83
2018-09-13T22:10:15.243Z,97319.66
2018-09-13T22:12:42.744Z,97323.92
2018-09-13T22:15:10.344Z,97322.48
2018-09-13T22:17:37.795Z,97326.18
2018-09-13T22:20:05.267Z,97325.41
2018-09-13T22:22:32.704Z,97325.16
2018-09-13T22:25:00.106Z,97324.26
2018-09-13T22:27:27.564Z,97327.30
2018-09-13T22:29:55.004Z,97325.90
2018-09-13T22:32:22.480Z,97325.13
2018-09-13T22:34:49.959Z,97321.78
2018-09-13T22:37:17.446Z,97316.94
2018-09-13T22:39:44.969Z,97317.84
2018-09-13T22:42:12.400Z,97313.14
2018-09-13T22:44:39.872Z,97314.50
2018-09-13T22:47:07.320Z,97311.48
2018-09-13T22:49:34.789Z,97309.72
2018-09-13T22:52:02.238Z,97311.56
2018-09-13T22:54:29.663Z,97316.14
2018-09-13T22:56:57.200Z,97309.63
2018-09-13T22:59:24.691Z,97313.97
2018-09-13T23:01:52.163Z,97306.86
2018-09-13T23:04:19.640Z,97314.10
2018-09-13T23:06:47.132Z,97303.42
2018-09-13T23:09:14.599Z,97310.89
2018-09-13T23:11:42.077Z,97310.11
2018-09-13T23:14:09.572Z,97316.81
2018-09-13T23:16:37.049Z,97318.66
2018-09-13T23:19:04.563Z,97312.23
2018-09-13T23:21:32.060Z,97315.45
2018-09-13T23:23:59.532Z,97320.18
2018-09-13T23:26:27.075Z,97324.38
2018-09-13T23:28:54.526Z,97328.81
